sensor_id;sensor_type;location;lat;lon;timestamp;pressure;altitude;pressure_sealevel;temperature;humidity
45129;BME280;35512;56.312;101.728;2023-04-19T00:00:04;96365.13;;;-7.19;35.94
45129;BME280;35512;56.312;101.728;2023-04-19T00:02:37;96366.38;;;-7.27;35.80
45129;BME280;35512;56.312;101.728;2023-04-19T00:05:09;96375.56;;;-7.24;35.75
45129;BME280;35512;56.312;101.728;2023-04-19T00:07:41;96365.06;;;-7.24;36.33
45129;BME280;35512;56.312;101.728;2023-04-19T00:10:10;96364.81;;;-7.23;36.03
45129;BME280;35512;56.312;101.728;2023-04-19T00:12:38;96372.81;;;-7.13;36.28
45129;BME280;35512;56.312;101.728;2023-04-19T00:15:08;96371.09;;;-6.97;36.38
45129;BME280;35512;56.312;101.728;2023-04-19T00:17:37;96368.69;;;-6.98;36.40
45129;BME280;35512;56.312;101.728;2023-04-19T00:20:06;96363.75;;;-6.94;36.61
45129;BME280;35512;56.312;101.728;2023-04-19T00:22:37;96359.06;;;-6.87;36.83
45129;BME280;35512;56.312;101.728;2023-04-19T00:25:06;96360.75;;;-6.76;36.93
45129;BME280;35512;56.312;101.728;2023-04-19T00:27:35;96359.28;;;-6.56;36.88
45129;BME280;35512;56.312;101.728;2023-04-19T00:30:05;96350.72;;;-6.36;37.14
45129;BME280;35512;56.312;101.728;2023-04-19T00:32:36;96343.19;;;-6.17;37.08
45129;BME280;35512;56.312;101.728;2023-04-19T00:35:05;96343.78;;;-6.00;37.18
45129;BME280;35512;56.312;101.728;2023-04-19T00:37:34;96336.44;;;-5.87;37.42
45129;BME280;35512;56.312;101.728;2023-04-19T00:40:04;96342.50;;;-5.71;36.98
45129;BME280;35512;56.312;101.728;2023-04-19T00:42:35;96339.91;;;-5.51;36.72
45129;BME280;35512;56.312;101.728;2023-04-19T00:45:05;96330.22;;;-5.24;36.18
45129;BME280;35512;56.312;101.728;2023-04-19T00:47:36;96314.94;;;-4.97;35.59
45129;BME280;35512;56.312;101.728;2023-04-19T00:50:06;96305.16;;;-4.70;35.28
45129;BME280;35512;56.312;101.728;2023-04-19T00:52:36;96314.09;;;-4.66;35.05
45129;BME280;35512;56.312;101.728;2023-04-19T00:55:05;96296.19;;;-4.64;35.11
45129;BME280;35512;56.312;101.728;2023-04-19T00:57:36;96282.19;;;-4.54;34.95
45129;BME280;35512;56.312;101.728;2023-04-19T01:00:06;96274.53;;;-4.51;34.52
45129;BME280;35512;56.312;101.728;2023-04-19T01:02:38;96268.41;;;-4.31;34.72
45129;BME280;35512;56.312;101.728;2023-04-19T01:05:07;96278.91;;;-4.15;34.20
45129;BME280;35512;56.312;101.728;2023-04-19T01:07:36;96273.97;;;-3.82;34.52
45129;BME280;35512;56.312;101.728;2023-04-19T01:10:06;96272.13;;;-3.42;33.43
45129;BME280;35512;56.312;101.728;2023-04-19T01:12:35;96263.78;;;-3.20;33.61
45129;BME280;35512;56.312;101.728;2023-04-19T01:15:04;96268.66;;;-2.49;32.26
45129;BME280;35512;56.312;101.728;2023-04-19T01:17:33;96252.94;;;-1.59;31.96
45129;BME280;35512;56.312;101.728;2023-04-19T01:20:05;96241.09;;;-0.40;30.97
45129;BME280;35512;56.312;101.728;2023-04-19T01:22:36;96237.44;;;0.34;30.64
45129;BME280;35512;56.312;101.728;2023-04-19T01:25:08;96236.06;;;1.45;30.77
45129;BME280;35512;56.312;101.728;2023-04-19T01:27:37;96226.84;;;2.09;29.02
45129;BME280;35512;56.312;101.728;2023-04-19T01:30:07;96226.69;;;2.49;29.47
45129;BME280;35512;56.312;101.728;2023-04-19T01:32:36;96222.75;;;2.64;27.38
45129;BME280;35512;56.312;101.728;2023-04-19T01:35:05;96213.69;;;2.30;26.83
45129;BME280;35512;56.312;101.728;2023-04-19T01:37:34;96216.59;;;1.84;26.58
45129;BME280;35512;56.312;101.728;2023-04-19T01:40:04;96217.69;;;1.26;26.77
45129;BME280;35512;56.312;101.728;2023-04-19T01:42:33;96214.38;;;0.21;27.47
45129;BME280;35512;56.312;101.728;2023-04-19T01:45:02;96190.59;;;-0.91;27.74
45129;BME280;35512;56.312;101.728;2023-04-19T01:47:32;96207.22;;;-1.84;28.72
45129;BME280;35512;56.312;101.728;2023-04-19T01:50:02;96211.06;;;-2.14;29.47
45129;BME280;35512;56.312;101.728;2023-04-19T01:52:31;96193.41;;;-2.38;30.11
45129;BME280;35512;56.312;101.728;2023-04-19T01:55:00;96169.34;;;-2.61;30.21
45129;BME280;35512;56.312;101.728;2023-04-19T01:57:30;96173.28;;;-2.58;30.28
45129;BME280;35512;56.312;101.728;2023-04-19T02:00:00;96185.44;;;-2.57;30.31
45129;BME280;35512;56.312;101.728;2023-04-19T02:02:42;96190.53;;;-2.42;30.86
45129;BME280;35512;56.312;101.728;2023-04-19T02:05:12;96188.25;;;-2.29;30.75
45129;BME280;35512;56.312;101.728;2023-04-19T02:07:40;96183.53;;;-2.32;30.78
45129;BME280;35512;56.312;101.728;2023-04-19T02:10:10;96177.47;;;-2.14;31.00
45129;BME280;35512;56.312;101.728;2023-04-19T02:12:41;96181.97;;;-2.14;31.08
45129;BME280;35512;56.312;101.728;2023-04-19T02:15:12;96178.47;;;-2.10;31.46
45129;BME280;35512;56.312;101.728;2023-04-19T02:17:41;96175.13;;;-2.15;31.50
45129;BME280;35512;56.312;101.728;2023-04-19T02:20:12;96173.38;;;-2.25;31.56
45129;BME280;35512;56.312;101.728;2023-04-19T02:22:41;96171.31;;;-2.47;32.06
45129;BME280;35512;56.312;101.728;2023-04-19T02:25:11;96182.06;;;-2.87;32.58
45129;BME280;35512;56.312;101.728;2023-04-19T02:27:40;96175.94;;;-3.07;32.89
45129;BME280;35512;56.312;101.728;2023-04-19T02:30:09;96181.50;;;-3.08;33.31
45129;BME280;35512;56.312;101.728;2023-04-19T02:32:38;96170.03;;;-3.23;33.13
45129;BME280;35512;56.312;101.728;2023-04-19T02:35:07;96189.41;;;-3.32;33.38
45129;BME280;35512;56.312;101.728;2023-04-19T02:37:36;96198.09;;;-3.32;33.85
45129;BME280;35512;56.312;101.728;2023-04-19T02:40:06;96194.16;;;-3.34;34.30
45129;BME280;35512;56.312;101.728;2023-04-19T02:42:35;96188.50;;;-3.52;35.08
45129;BME280;35512;56.312;101.728;2023-04-19T02:45:05;96176.88;;;-3.51;35.27
45129;BME280;35512;56.312;101.728;2023-04-19T02:47:36;96174.66;;;-3.38;35.37
45129;BME280;35512;56.312;101.728;2023-04-19T02:50:06;96169.78;;;-3.26;35.04
45129;BME280;35512;56.312;101.728;2023-04-19T02:52:41;96170.16;;;-3.09;35.02
45129;BME280;35512;56.312;101.728;2023-04-19T02:55:10;96157.38;;;-3.01;35.08
45129;BME280;35512;56.312;101.728;2023-04-19T02:57:40;96169.03;;;-3.02;34.77
45129;BME280;35512;56.312;101.728;2023-04-19T03:00:11;96165.94;;;-3.10;34.81
45129;BME280;35512;56.312;101.728;2023-04-19T03:02:46;96165.47;;;-3.17;34.90
45129;BME280;35512;56.312;101.728;2023-04-19T03:05:15;96181.09;;;-3.20;35.59
45129;BME280;35512;56.312;101.728;2023-04-19T03:07:44;96176.94;;;-3.27;35.79
45129;BME280;35512;56.312;101.728;2023-04-19T03:10:14;96174.94;;;-3.40;36.01
45129;BME280;35512;56.312;101.728;2023-04-19T03:12:43;96176.00;;;-3.41;36.51
45129;BME280;35512;56.312;101.728;2023-04-19T03:15:11;96167.06;;;-3.45;36.64
45129;BME280;35512;56.312;101.728;2023-04-19T03:17:40;96183.19;;;-3.47;36.91
45129;BME280;35512;56.312;101.728;2023-04-19T03:20:10;96186.09;;;-3.48;37.15
45129;BME280;35512;56.312;101.728;2023-04-19T03:22:40;96190.13;;;-3.56;37.81
45129;BME280;35512;56.312;101.728;2023-04-19T03:25:09;96204.72;;;-3.64;37.92
45129;BME280;35512;56.312;101.728;2023-04-19T03:27:44;96188.31;;;-3.61;38.46
45129;BME280;35512;56.312;101.728;2023-04-19T03:30:19;96180.09;;;-3.54;38.72
45129;BME280;35512;56.312;101.728;2023-04-19T03:32:48;96187.19;;;-3.54;38.69
45129;BME280;35512;56.312;101.728;2023-04-19T03:35:17;96197.22;;;-3.51;39.09
45129;BME280;35512;56.312;101.728;2023-04-19T03:37:47;96191.47;;;-3.29;39.40
45129;BME280;35512;56.312;101.728;2023-04-19T03:40:16;96189.16;;;-3.07;39.28
45129;BME280;35512;56.312;101.728;2023-04-19T03:42:46;96191.63;;;-2.91;39.20
45129;BME280;35512;56.312;101.728;2023-04-19T03:45:29;96196.53;;;-3.03;39.80
45129;BME280;35512;56.312;101.728;2023-04-19T03:47:58;96203.81;;;-3.19;40.57
45129;BME280;35512;56.312;101.728;2023-04-19T03:50:30;96201.47;;;-3.26;41.33
45129;BME280;35512;56.312;101.728;2023-04-19T03:53:00;96203.69;;;-3.38;41.56
45129;BME280;35512;56.312;101.728;2023-04-19T03:55:29;96210.53;;;-3.32;41.74
45129;BME280;35512;56.312;101.728;2023-04-19T03:57:59;96216.41;;;-3.11;41.83
45129;BME280;35512;56.312;101.728;2023-04-19T04:00:39;96208.84;;;-2.94;41.07
45129;BME280;35512;56.312;101.728;2023-04-19T04:03:08;96203.47;;;-2.83;41.49
45129;BME280;35512;56.312;101.728;2023-04-19T04:05:38;96208.47;;;-2.82;41.50
45129;BME280;35512;56.312;101.728;2023-04-19T04:08:07;96210.97;;;-2.96;41.89
45129;BME280;35512;56.312;101.728;2023-04-19T04:10:36;96221.44;;;-3.44;44.12
45129;BME280;35512;56.312;101.728;2023-04-19T04:13:06;96226.22;;;-3.86;46.22
45129;BME280;35512;56.312;101.728;2023-04-19T04:15:48;96222.97;;;-4.12;46.94
45129;BME280;35512;56.312;101.728;2023-04-19T04:18:17;96228.22;;;-4.07;48.08
45129;BME280;35512;56.312;101.728;2023-04-19T04:20:47;96233.88;;;-3.84;48.27
45129;BME280;35512;56.312;101.728;2023-04-19T04:23:17;96235.69;;;-3.80;47.51
45129;BME280;35512;56.312;101.728;2023-04-19T04:25:58;96244.13;;;-3.78;48.04
45129;BME280;35512;56.312;101.728;2023-04-19T04:28:51;96236.25;;;-3.83;47.95
45129;BME280;35512;56.312;101.728;2023-04-19T04:31:22;96208.72;;;-3.71;47.98
45129;BME280;35512;56.312;101.728;2023-04-19T04:33:51;96219.22;;;-3.61;47.85
45129;BME280;35512;56.312;101.728;2023-04-19T04:36:23;96225.84;;;-3.34;47.17
45129;BME280;35512;56.312;101.728;2023-04-19T04:38:55;96212.88;;;-3.31;45.71
45129;BME280;35512;56.312;101.728;2023-04-19T04:41:24;96207.31;;;-3.29;45.40
45129;BME280;35512;56.312;101.728;2023-04-19T04:43:56;96208.66;;;-3.32;44.09
45129;BME280;35512;56.312;101.728;2023-04-19T04:46:38;96220.16;;;-3.47;43.83
45129;BME280;35512;56.312;101.728;2023-04-19T04:49:11;96223.31;;;-3.45;43.58
45129;BME280;35512;56.312;101.728;2023-04-19T04:51:42;96196.34;;;-3.42;42.75
45129;BME280;35512;56.312;101.728;2023-04-19T04:54:11;96210.56;;;-3.37;42.77
45129;BME280;35512;56.312;101.728;2023-04-19T04:56:41;96210.84;;;-3.39;41.96
45129;BME280;35512;56.312;101.728;2023-04-19T04:59:10;96200.50;;;-3.35;42.41
45129;BME280;35512;56.312;101.728;2023-04-19T05:01:44;96215.78;;;-3.27;41.76
45129;BME280;35512;56.312;101.728;2023-04-19T05:04:15;96213.94;;;-3.32;41.09
45129;BME280;35512;56.312;101.728;2023-04-19T05:06:44;96214.81;;;-3.42;40.67
45129;BME280;35512;56.312;101.728;2023-04-19T05:09:19;96210.31;;;-3.41;40.38
45129;BME280;35512;56.312;101.728;2023-04-19T05:11:48;96202.22;;;-3.50;39.73
45129;BME280;35512;56.312;101.728;2023-04-19T05:14:18;96205.34;;;-3.48;40.01
45129;BME280;35512;56.312;101.728;2023-04-19T05:16:46;96199.47;;;-3.40;38.37
45129;BME280;35512;56.312;101.728;2023-04-19T05:19:16;96201.53;;;-3.31;38.27
45129;BME280;35512;56.312;101.728;2023-04-19T05:21:50;96203.06;;;-3.25;38.17
45129;BME280;35512;56.312;101.728;2023-04-19T05:24:19;96213.34;;;-3.24;37.83
45129;BME280;35512;56.312;101.728;2023-04-19T05:26:49;96214.59;;;-3.16;37.83
45129;BME280;35512;56.312;101.728;2023-04-19T05:29:18;96199.53;;;-3.15;37.20
45129;BME280;35512;56.312;101.728;2023-04-19T05:31:50;96201.44;;;-3.21;37.37
45129;BME280;35512;56.312;101.728;2023-04-19T05:34:26;96181.16;;;-3.26;36.40
45129;BME280;35512;56.312;101.728;2023-04-19T05:36:57;96184.34;;;-3.29;35.60
45129;BME280;35512;56.312;101.728;2023-04-19T05:39:26;96174.91;;;-3.35;34.75
45129;BME280;35512;56.312;101.728;2023-04-19T05:41:55;96179.72;;;-3.42;34.50
45129;BME280;35512;56.312;101.728;2023-04-19T05:44:24;96186.03;;;-3.38;34.21
45129;BME280;35512;56.312;101.728;2023-04-19T05:46:53;96175.41;;;-3.33;33.47
45129;BME280;35512;56.312;101.728;2023-04-19T05:49:42;96188.09;;;-3.35;32.54
45129;BME280;35512;56.312;101.728;2023-04-19T05:52:22;96198.22;;;-3.42;31.10
45129;BME280;35512;56.312;101.728;2023-04-19T05:54:55;96196.69;;;-3.53;30.61
45129;BME280;35512;56.312;101.728;2023-04-19T05:57:24;96187.84;;;-3.68;29.30
45129;BME280;35512;56.312;101.728;2023-04-19T05:59:54;96193.66;;;-3.71;29.46
45129;BME280;35512;56.312;101.728;2023-04-19T06:02:26;96202.13;;;-3.74;28.43
45129;BME280;35512;56.312;101.728;2023-04-19T06:04:56;96181.88;;;-3.79;26.93
45129;BME280;35512;56.312;101.728;2023-04-19T06:07:33;96193.28;;;-3.88;27.23
45129;BME280;35512;56.312;101.728;2023-04-19T06:10:10;96183.25;;;-3.92;26.86
45129;BME280;35512;56.312;101.728;2023-04-19T06:12:39;96193.28;;;-3.88;26.74
45129;BME280;35512;56.312;101.728;2023-04-19T06:15:08;96197.25;;;-3.91;26.71
45129;BME280;35512;56.312;101.728;2023-04-19T06:17:38;96184.88;;;-3.96;26.51
45129;BME280;35512;56.312;101.728;2023-04-19T06:20:07;96174.56;;;-3.92;27.14
45129;BME280;35512;56.312;101.728;2023-04-19T06:22:43;96181.34;;;-3.81;26.97
45129;BME280;35512;56.312;101.728;2023-04-19T06:25:12;96177.31;;;-3.68;27.41
45129;BME280;35512;56.312;101.728;2023-04-19T06:27:41;96186.63;;;-3.46;27.77
45129;BME280;35512;56.312;101.728;2023-04-19T06:30:12;96200.66;;;-3.21;27.93
45129;BME280;35512;56.312;101.728;2023-04-19T06:32:42;96207.25;;;-3.19;27.30
45129;BME280;35512;56.312;101.728;2023-04-19T06:35:13;96210.22;;;-3.26;27.44
45129;BME280;35512;56.312;101.728;2023-04-19T06:37:42;96215.56;;;-3.36;27.42
45129;BME280;35512;56.312;101.728;2023-04-19T06:40:11;96210.09;;;-3.45;27.15
45129;BME280;35512;56.312;101.728;2023-04-19T06:42:40;96221.47;;;-3.49;26.85
45129;BME280;35512;56.312;101.728;2023-04-19T06:45:09;96252.44;;;-3.60;26.16
45129;BME280;35512;56.312;101.728;2023-04-19T06:47:38;96250.16;;;-3.72;26.15
45129;BME280;35512;56.312;101.728;2023-04-19T06:50:08;96243.69;;;-3.50;26.53
45129;BME280;35512;56.312;101.728;2023-04-19T06:52:38;96224.38;;;-3.46;26.15
45129;BME280;35512;56.312;101.728;2023-04-19T06:55:08;96241.34;;;-3.57;25.67
45129;BME280;35512;56.312;101.728;2023-04-19T06:57:37;96240.13;;;-3.75;25.58
45129;BME280;35512;56.312;101.728;2023-04-19T07:00:08;96246.53;;;-3.81;25.66
45129;BME280;35512;56.312;101.728;2023-04-19T07:02:38;96225.47;;;-3.92;25.95
45129;BME280;35512;56.312;101.728;2023-04-19T07:05:09;96254.72;;;-3.14;25.73
45129;BME280;35512;56.312;101.728;2023-04-19T07:07:40;96238.53;;;-1.20;25.18
45129;BME280;35512;56.312;101.728;2023-04-19T07:10:09;96231.72;;;-1.07;23.70
45129;BME280;35512;56.312;101.728;2023-04-19T07:12:38;96219.81;;;-1.57;24.13
45129;BME280;35512;56.312;101.728;2023-04-19T07:15:08;96254.06;;;-2.04;23.71
45129;BME280;35512;56.312;101.728;2023-04-19T07:17:39;96231.44;;;-2.34;23.53
45129;BME280;35512;56.312;101.728;2023-04-19T07:20:08;96267.63;;;-2.78;23.01
45129;BME280;35512;56.312;101.728;2023-04-19T07:22:37;96260.84;;;-3.18;23.73
45129;BME280;35512;56.312;101.728;2023-04-19T07:25:07;96260.81;;;-3.48;23.90
45129;BME280;35512;56.312;101.728;2023-04-19T07:27:36;96246.38;;;-3.61;24.27
45129;BME280;35512;56.312;101.728;2023-04-19T07:30:06;96254.34;;;-3.02;24.26
45129;BME280;35512;56.312;101.728;2023-04-19T07:32:35;96239.50;;;-2.25;23.72
45129;BME280;35512;56.312;101.728;2023-04-19T07:35:05;96249.97;;;-1.39;24.06
45129;BME280;35512;56.312;101.728;2023-04-19T07:37:34;96242.59;;;0.76;24.12
45129;BME280;35512;56.312;101.728;2023-04-19T07:40:04;96244.63;;;1.82;22.18
45129;BME280;35512;56.312;101.728;2023-04-19T07:42:34;96256.16;;;2.35;22.38
45129;BME280;35512;56.312;101.728;2023-04-19T07:45:05;96244.34;;;3.06;21.97
45129;BME280;35512;56.312;101.728;2023-04-19T07:47:37;96256.63;;;2.90;21.34
45129;BME280;35512;56.312;101.728;2023-04-19T07:50:07;96259.97;;;1.36;21.33
45129;BME280;35512;56.312;101.728;2023-04-19T07:52:36;96250.44;;;-0.15;21.54
45129;BME280;35512;56.312;101.728;2023-04-19T07:55:07;96240.13;;;-0.72;22.19
45129;BME280;35512;56.312;101.728;2023-04-19T07:57:36;96247.53;;;-1.02;22.85
45129;BME280;35512;56.312;101.728;2023-04-19T08:00:06;96267.94;;;-1.36;23.11
45129;BME280;35512;56.312;101.728;2023-04-19T08:02:44;96272.84;;;-0.21;23.81
45129;BME280;35512;56.312;101.728;2023-04-19T08:05:15;96281.78;;;-0.03;23.12
45129;BME280;35512;56.312;101.728;2023-04-19T08:07:49;96292.94;;;-0.76;23.27
45129;BME280;35512;56.312;101.728;2023-04-19T08:10:19;96318.19;;;-1.88;24.05
45129;BME280;35512;56.312;101.728;2023-04-19T08:12:51;96308.44;;;-2.65;25.18
45129;BME280;35512;56.312;101.728;2023-04-19T08:15:34;96300.47;;;-2.89;25.29
45129;BME280;35512;56.312;101.728;2023-04-19T08:18:25;96306.91;;;-3.00;25.29
45129;BME280;35512;56.312;101.728;2023-04-19T08:20:54;96306.00;;;-3.15;25.34
45129;BME280;35512;56.312;101.728;2023-04-19T08:23:24;96329.44;;;-3.48;25.50
45129;BME280;35512;56.312;101.728;2023-04-19T08:26:08;96332.94;;;-3.58;26.19
45129;BME280;35512;56.312;101.728;2023-04-19T08:28:38;96343.47;;;-3.52;26.48
45129;BME280;35512;56.312;101.728;2023-04-19T08:31:07;96344.22;;;-3.42;26.61
45129;BME280;35512;56.312;101.728;2023-04-19T08:33:38;96348.03;;;-3.63;25.96
45129;BME280;35512;56.312;101.728;2023-04-19T08:36:07;96347.84;;;-3.82;26.22
45129;BME280;35512;56.312;101.728;2023-04-19T08:38:37;96350.38;;;-4.12;26.00
45129;BME280;35512;56.312;101.728;2023-04-19T08:41:09;96362.56;;;-4.47;25.98
45129;BME280;35512;56.312;101.728;2023-04-19T08:43:41;96357.34;;;-4.83;26.51
45129;BME280;35512;56.312;101.728;2023-04-19T08:46:11;96368.66;;;-4.98;26.58
45129;BME280;35512;56.312;101.728;2023-04-19T08:48:44;96371.03;;;-5.17;26.88
45129;BME280;35512;56.312;101.728;2023-04-19T08:51:16;96372.59;;;-5.31;26.71
45129;BME280;35512;56.312;101.728;2023-04-19T08:53:46;96373.38;;;-5.36;27.02
45129;BME280;35512;56.312;101.728;2023-04-19T08:56:16;96378.41;;;-5.34;27.35
45129;BME280;35512;56.312;101.728;2023-04-19T08:59:01;96378.94;;;-5.22;27.93
45129;BME280;35512;56.312;101.728;2023-04-19T09:01:48;96371.56;;;-4.89;28.28
45129;BME280;35512;56.312;101.728;2023-04-19T09:04:18;96380.72;;;-4.25;28.42
45129;BME280;35512;56.312;101.728;2023-04-19T09:07:04;96370.56;;;-3.81;27.17
45129;BME280;35512;56.312;101.728;2023-04-19T09:09:33;96399.94;;;-4.19;27.18
45129;BME280;35512;56.312;101.728;2023-04-19T09:12:18;96387.63;;;-4.75;27.71
45129;BME280;35512;56.312;101.728;2023-04-19T09:14:47;96398.97;;;-5.00;27.82
45129;BME280;35512;56.312;101.728;2023-04-19T09:17:37;96404.22;;;-5.16;27.80
45129;BME280;35512;56.312;101.728;2023-04-19T09:20:07;96398.88;;;-5.52;27.94
45129;BME280;35512;56.312;101.728;2023-04-19T09:22:36;96399.78;;;-5.94;28.60
45129;BME280;35512;56.312;101.728;2023-04-19T09:25:06;96407.75;;;-6.32;29.45
45129;BME280;35512;56.312;101.728;2023-04-19T09:27:37;96419.69;;;-6.56;30.42
45129;BME280;35512;56.312;101.728;2023-04-19T09:30:08;96433.47;;;-6.76;31.71
45129;BME280;35512;56.312;101.728;2023-04-19T09:32:47;96431.47;;;-6.97;33.41
45129;BME280;35512;56.312;101.728;2023-04-19T09:35:17;96438.03;;;-6.99;33.89
45129;BME280;35512;56.312;101.728;2023-04-19T09:37:59;96445.41;;;-6.64;34.23
45129;BME280;35512;56.312;101.728;2023-04-19T09:40:34;96425.94;;;-6.63;34.51
45129;BME280;35512;56.312;101.728;2023-04-19T09:43:03;96438.19;;;-6.78;34.76
45129;BME280;35512;56.312;101.728;2023-04-19T09:45:53;96433.53;;;-6.99;34.52
45129;BME280;35512;56.312;101.728;2023-04-19T09:48:23;96427.09;;;-7.13;34.37
45129;BME280;35512;56.312;101.728;2023-04-19T09:50:56;96451.97;;;-7.21;33.92
45129;BME280;35512;56.312;101.728;2023-04-19T09:53:34;96456.59;;;-7.06;34.50
45129;BME280;35512;56.312;101.728;2023-04-19T09:56:09;96451.09;;;-7.04;35.15
45129;BME280;35512;56.312;101.728;2023-04-19T09:58:40;96459.28;;;-6.96;37.05
45129;BME280;35512;56.312;101.728;2023-04-19T10:01:20;96454.44;;;-6.82;37.07
45129;BME280;35512;56.312;101.728;2023-04-19T10:03:50;96461.88;;;-6.73;36.27
45129;BME280;35512;56.312;101.728;2023-04-19T10:06:21;96455.59;;;-6.67;36.36
45129;BME280;35512;56.312;101.728;2023-04-19T10:08:54;96463.63;;;-6.79;36.19
45129;BME280;35512;56.312;101.728;2023-04-19T10:11:25;96467.22;;;-6.90;36.20
45129;BME280;35512;56.312;101.728;2023-04-19T10:14:01;96464.81;;;-6.97;37.36
45129;BME280;35512;56.312;101.728;2023-04-19T10:16:34;96461.78;;;-7.11;38.13
45129;BME280;35512;56.312;101.728;2023-04-19T10:19:07;96480.94;;;-7.10;38.86
45129;BME280;35512;56.312;101.728;2023-04-19T10:21:38;96470.31;;;-6.99;38.32
45129;BME280;35512;56.312;101.728;2023-04-19T10:24:12;96469.69;;;-6.78;38.26
45129;BME280;35512;56.312;101.728;2023-04-19T10:29:53;96481.75;;;-6.83;38.36
45129;BME280;35512;56.312;101.728;2023-04-19T10:32:44;96476.31;;;-7.03;38.34
45129;BME280;35512;56.312;101.728;2023-04-19T10:35:20;96470.03;;;-7.24;39.23
45129;BME280;35512;56.312;101.728;2023-04-19T10:40:57;96492.59;;;-7.73;41.83
45129;BME280;35512;56.312;101.728;2023-04-19T10:43:33;96489.63;;;-7.99;43.11
45129;BME280;35512;56.312;101.728;2023-04-19T10:49:04;96497.84;;;-8.29;43.17
45129;BME280;35512;56.312;101.728;2023-04-19T10:51:38;96513.47;;;-8.17;44.41
45129;BME280;35512;56.312;101.728;2023-04-19T10:54:31;96501.34;;;-8.23;44.02
45129;BME280;35512;56.312;101.728;2023-04-19T10:57:07;96508.81;;;-8.15;44.75
45129;BME280;35512;56.312;101.728;2023-04-19T10:59:40;96509.91;;;-8.11;44.64
45129;BME280;35512;56.312;101.728;2023-04-19T11:05:01;96509.59;;;-8.15;44.67
45129;BME280;35512;56.312;101.728;2023-04-19T11:07:36;96514.25;;;-8.17;44.02
45129;BME280;35512;56.312;101.728;2023-04-19T11:10:08;96516.09;;;-8.17;44.67
45129;BME280;35512;56.312;101.728;2023-04-19T11:12:41;96510.06;;;-8.18;44.17
45129;BME280;35512;56.312;101.728;2023-04-19T11:15:11;96516.97;;;-8.11;44.25
45129;BME280;35512;56.312;101.728;2023-04-19T11:17:43;96519.59;;;-8.11;44.36
45129;BME280;35512;56.312;101.728;2023-04-19T11:20:16;96524.19;;;-8.19;44.55
45129;BME280;35512;56.312;101.728;2023-04-19T11:22:48;96528.56;;;-8.24;44.83
45129;BME280;35512;56.312;101.728;2023-04-19T11:25:19;96533.19;;;-8.32;45.70
45129;BME280;35512;56.312;101.728;2023-04-19T11:27:52;96529.44;;;-8.36;46.39
45129;BME280;35512;56.312;101.728;2023-04-19T11:30:28;96533.78;;;-8.46;46.43
45129;BME280;35512;56.312;101.728;2023-04-19T11:33:00;96539.94;;;-8.53;46.30
45129;BME280;35512;56.312;101.728;2023-04-19T11:35:30;96532.88;;;-8.52;47.14
45129;BME280;35512;56.312;101.728;2023-04-19T11:38:03;96541.22;;;-8.55;47.37
45129;BME280;35512;56.312;101.728;2023-04-19T11:40:33;96541.44;;;-8.57;47.36
45129;BME280;35512;56.312;101.728;2023-04-19T11:43:06;96540.09;;;-8.59;47.54
45129;BME280;35512;56.312;101.728;2023-04-19T11:45:41;96534.06;;;-8.60;47.62
45129;BME280;35512;56.312;101.728;2023-04-19T11:48:13;96538.03;;;-8.57;48.03
45129;BME280;35512;56.312;101.728;2023-04-19T11:50:45;96528.25;;;-8.62;48.15
45129;BME280;35512;56.312;101.728;2023-04-19T11:53:26;96522.53;;;-8.59;48.07
45129;BME280;35512;56.312;101.728;2023-04-19T11:56:09;96525.16;;;-8.59;48.36
45129;BME280;35512;56.312;101.728;2023-04-19T11:58:45;96524.63;;;-8.61;48.42
45129;BME280;35512;56.312;101.728;2023-04-19T12:01:20;96525.41;;;-8.60;49.09
45129;BME280;35512;56.312;101.728;2023-04-19T12:03:54;96523.50;;;-8.65;48.97
45129;BME280;35512;56.312;101.728;2023-04-19T12:06:27;96525.56;;;-8.67;48.91
45129;BME280;35512;56.312;101.728;2023-04-19T12:08:56;96515.56;;;-8.70;48.86
45129;BME280;35512;56.312;101.728;2023-04-19T12:11:43;96517.41;;;-8.71;49.29
45129;BME280;35512;56.312;101.728;2023-04-19T12:14:15;96515.66;;;-8.65;49.13
45129;BME280;35512;56.312;101.728;2023-04-19T12:16:44;96512.31;;;-8.60;49.79
45129;BME280;35512;56.312;101.728;2023-04-19T12:19:15;96526.66;;;-8.63;50.54
45129;BME280;35512;56.312;101.728;2023-04-19T12:21:46;96528.41;;;-8.69;50.89
45129;BME280;35512;56.312;101.728;2023-04-19T12:24:15;96521.50;;;-8.75;51.81
45129;BME280;35512;56.312;101.728;2023-04-19T12:26:56;96526.19;;;-8.77;51.14
45129;BME280;35512;56.312;101.728;2023-04-19T12:29:27;96535.97;;;-8.72;51.66
45129;BME280;35512;56.312;101.728;2023-04-19T12:31:56;96532.22;;;-8.76;51.48
45129;BME280;35512;56.312;101.728;2023-04-19T12:34:25;96532.53;;;-8.73;51.57
45129;BME280;35512;56.312;101.728;2023-04-19T12:36:55;96532.78;;;-8.74;51.92
45129;BME280;35512;56.312;101.728;2023-04-19T12:39:24;96539.28;;;-8.77;52.28
45129;BME280;35512;56.312;101.728;2023-04-19T12:41:53;96537.53;;;-8.71;52.85
45129;BME280;35512;56.312;101.728;2023-04-19T12:44:22;96536.50;;;-8.70;52.62
45129;BME280;35512;56.312;101.728;2023-04-19T12:46:55;96545.72;;;-8.68;53.45
45129;BME280;35512;56.312;101.728;2023-04-19T12:49:25;96540.97;;;-8.71;53.46
45129;BME280;35512;56.312;101.728;2023-04-19T12:51:54;96545.16;;;-8.70;53.79
45129;BME280;35512;56.312;101.728;2023-04-19T12:54:24;96549.28;;;-8.74;53.63
45129;BME280;35512;56.312;101.728;2023-04-19T12:56:53;96550.41;;;-8.70;54.33
45129;BME280;35512;56.312;101.728;2023-04-19T12:59:22;96556.66;;;-8.71;54.21
45129;BME280;35512;56.312;101.728;2023-04-19T13:01:52;96558.16;;;-8.75;54.87
45129;BME280;35512;56.312;101.728;2023-04-19T13:04:21;96562.59;;;-8.75;55.14
45129;BME280;35512;56.312;101.728;2023-04-19T13:06:51;96568.88;;;-8.76;55.06
45129;BME280;35512;56.312;101.728;2023-04-19T13:09:20;96566.03;;;-8.75;55.39
45129;BME280;35512;56.312;101.728;2023-04-19T13:11:49;96560.78;;;-8.75;55.49
45129;BME280;35512;56.312;101.728;2023-04-19T13:14:18;96570.69;;;-8.77;55.81